METAR

TAF

 




Rio de Janeiro / Galeão - Antonio Carlos Jobim, RJ - SBGL


24 de Novembro de 2014 às 03:00 (UTC)


Tempo:

Céu parcialmente nublado

Temperatura:

24ºC

Umidade Relativa:

83%

Localização:
Ajuste do Altímetro:

1015 hPa

Visibilidade Horizontal Predominante:

5000 m

Direção e Velocidade do Vento:

240° 5,56 Km/h


Observação Meteorológica:

METAR SBGL 240300Z 24003KT 5000 BR FEW006 SCT020 BKN100 24/21 Q1015=